This is the latest recevied weather packets stored in our database for station/object LRBS. If no packets are shown the sender has not sent any weather packets the latest 10 day(s).
| Time | Temp. | Humidity | Pressure | Rain* | Wind** | Luminosity | Snow |
|---|---|---|---|---|---|---|---|
| 1788121994 | 21.11° C | 69% | 1017 hPa | - | - | - | - |
| 1788118395 | 22.78° C | 61% | 1017 hPa | - | - | - | - |
| 1788115695 | 22.78° C | 61% | 1017 hPa | - | - | - | - |
| 1788114823 | 22.78° C | 61% | 1017 hPa | - | - | - | - |
| 1788107594 | 27.22° C | 45% | 1016 hPa | - | - | - | - |
| 1788105794 | 27.78° C | 42% | 1016 hPa | - | - | - | - |
| 1788104895 | 30° C | 38% | 1016 hPa | - | - | - | - |
| 1788103994 | 30° C | 38% | 1016 hPa | - | - | - | - |
| 1788103094 | 30° C | 38% | 1016 hPa | - | - | - | - |
| 1788102196 | 30° C | 38% | 1016 hPa | - | - | - | - |
| 1788101295 | 30° C | 35% | 1016 hPa | - | - | - | - |
| 1788100394 | 30° C | 35% | 1016 hPa | - | - | - | - |
| 1788099494 | 31.11° C | 35% | 1017 hPa | - | - | - | - |
| 1788098593 | 31.11° C | 35% | 1017 hPa | - | - | - | - |
| 1788097694 | 30° C | 38% | 1017 hPa | - | - | - | - |
| 1788096808 | 30° C | 38% | 1017 hPa | - | - | - | - |
| 1788095895 | 31.11° C | 38% | 1017 hPa | - | - | - | - |
| 1788094994 | 31.11° C | 38% | 1017 hPa | - | - | - | - |
| 1788093194 | 31.11° C | 38% | 1017 hPa | - | - | - | - |
| 1788092370 | 28.89° C | 40% | 1017 hPa | - | - | - | - |
| 1788091394 | 28.89° C | 40% | 1017 hPa | - | - | - | - |
| 1788089594 | 28.89° C | 43% | 1018 hPa | - | - | - | - |
| 1788088694 | 30° C | 40% | 1018 hPa | - | - | - | - |
| 1788087794 | 30° C | 40% | 1018 hPa | - | - | - | - |
| 1788086894 | 30° C | 40% | 1018 hPa | - | - | - | - |
* Rain since midnight (hover to see other rain measurements)
** Current wind speed in m/s (hover to see current wind gust speed)